createdAt,value
2023-05-22T00:00:35.693Z,16.51
2023-05-22T00:03:37.723Z,16.38
2023-05-22T00:06:43.026Z,16.36
2023-05-22T00:09:44.858Z,16.32
2023-05-22T00:12:46.589Z,16.19
2023-05-22T00:15:49.125Z,16.24
2023-05-22T00:18:50.969Z,16.16
2023-05-22T00:21:54.307Z,16.15
2023-05-22T00:24:56.184Z,15.82
2023-05-22T00:27:57.938Z,15.94
2023-05-22T00:30:59.684Z,15.97
2023-05-22T00:34:01.592Z,16.01
2023-05-22T00:37:03.471Z,16.04
2023-05-22T00:40:06.196Z,16.15
2023-05-22T00:43:09.424Z,16.13
2023-05-22T00:46:12.642Z,16.22
2023-05-22T00:49:14.556Z,16.29
2023-05-22T00:52:17.768Z,16.33
2023-05-22T00:55:19.685Z,16.36
2023-05-22T00:58:21.908Z,16.39
2023-05-22T01:01:26.417Z,16.42
2023-05-22T01:04:28.783Z,16.42
2023-05-22T01:07:30.835Z,16.37
2023-05-22T01:10:33.935Z,16.36
2023-05-22T01:13:55.453Z,16.38
2023-05-22T01:17:09.330Z,16.46
2023-05-22T01:20:30.136Z,16.43
2023-05-22T01:24:04.542Z,16.41
2023-05-22T01:27:42.989Z,16.25
2023-05-22T01:30:50.884Z,16.30
2023-05-22T01:33:55.194Z,16.26
2023-05-22T01:36:57.494Z,16.32
2023-05-22T01:39:59.490Z,16.28
2023-05-22T01:43:01.384Z,16.27
2023-05-22T01:46:03.558Z,16.29
2023-05-22T01:49:05.922Z,16.33
2023-05-22T01:52:38.308Z,16.38
2023-05-22T01:55:45.377Z,16.41
2023-05-22T01:58:54.089Z,16.32
2023-05-22T02:01:55.926Z,16.32
2023-05-22T02:05:00.158Z,16.32
2023-05-22T02:08:02.352Z,16.24
2023-05-22T02:11:05.400Z,16.25
2023-05-22T02:14:08.993Z,16.29
2023-05-22T02:17:10.785Z,16.24
2023-05-22T02:20:15.394Z,16.21
2023-05-22T02:23:17.252Z,16.21
2023-05-22T02:26:19.333Z,16.18
2023-05-22T02:29:21.147Z,16.18
2023-05-22T02:32:22.907Z,16.02
2023-05-22T02:35:24.826Z,16.06
2023-05-22T02:38:26.592Z,16.06
2023-05-22T02:41:28.526Z,16.05
2023-05-22T02:44:30.416Z,16.04
2023-05-22T02:47:32.255Z,16.02
2023-05-22T02:50:34.288Z,15.96
2023-05-22T02:53:40.122Z,15.85
2023-05-22T02:56:43.283Z,15.87
2023-05-22T02:59:45.394Z,15.91
2023-05-22T03:02:47.321Z,15.88
2023-05-22T03:05:50.056Z,15.87
2023-05-22T03:08:53.146Z,15.93
2023-05-22T03:11:54.955Z,15.87
2023-05-22T03:14:56.948Z,15.81
2023-05-22T03:17:58.849Z,15.89
2023-05-22T03:21:00.681Z,15.96
2023-05-22T03:24:03.021Z,16.03
2023-05-22T03:27:05.067Z,16.40
2023-05-22T03:30:08.184Z,16.72
2023-05-22T03:33:10.403Z,17.05
2023-05-22T03:36:12.457Z,17.34
2023-05-22T03:39:14.263Z,18.03
2023-05-22T03:42:16.454Z,18.47
2023-05-22T03:45:18.526Z,18.93
2023-05-22T03:48:21.018Z,19.48
2023-05-22T03:51:22.880Z,19.88
2023-05-22T03:54:24.904Z,20.48
2023-05-22T03:57:26.683Z,20.80
2023-05-22T04:00:28.570Z,21.50
2023-05-22T04:03:30.671Z,22.15
2023-05-22T04:06:33.108Z,22.10
2023-05-22T04:09:36.198Z,22.79
2023-05-22T04:12:38.056Z,23.35
2023-05-22T04:15:41.703Z,23.96
2023-05-22T04:18:43.486Z,24.55
2023-05-22T04:21:45.390Z,24.89
2023-05-22T04:24:49.265Z,24.74
2023-05-22T04:27:51.237Z,24.91
2023-05-22T04:30:54.554Z,25.26
2023-05-22T04:33:56.575Z,25.48
2023-05-22T04:37:00.112Z,26.38
2023-05-22T04:40:07.479Z,25.89
2023-05-22T04:43:09.301Z,24.12
2023-05-22T04:46:11.119Z,23.68
2023-05-22T04:49:13.551Z,23.12
2023-05-22T04:52:15.397Z,22.61
2023-05-22T04:55:17.402Z,22.37
2023-05-22T04:58:26.214Z,21.74
2023-05-22T05:01:29.096Z,21.38
2023-05-22T05:04:32.509Z,20.75
2023-05-22T05:07:37.554Z,20.83
2023-05-22T05:10:39.605Z,20.81
2023-05-22T05:13:42.977Z,20.81
2023-05-22T05:16:44.912Z,20.57
2023-05-22T05:19:46.718Z,20.69
2023-05-22T05:22:48.596Z,20.66
2023-05-22T05:25:50.401Z,20.36
2023-05-22T05:28:52.187Z,20.48
2023-05-22T05:31:54.077Z,20.74
2023-05-22T05:34:56.481Z,20.93
2023-05-22T05:37:58.355Z,20.95
2023-05-22T05:41:00.313Z,20.89
2023-05-22T05:44:02.131Z,20.81
2023-05-22T05:47:04.118Z,20.80
2023-05-22T05:50:07.298Z,20.85
2023-05-22T05:53:09.339Z,20.78
2023-05-22T05:56:11.145Z,20.93
2023-05-22T05:59:13.255Z,21.26
2023-05-22T06:02:15.057Z,21.29
2023-05-22T06:05:19.275Z,21.19
2023-05-22T06:08:21.938Z,21.08
2023-05-22T06:11:24.329Z,21.18
2023-05-22T06:14:26.095Z,20.89
2023-05-22T06:17:28.006Z,20.84
2023-05-22T06:20:29.910Z,21.09
2023-05-22T06:23:32.393Z,21.20
2023-05-22T06:26:34.220Z,21.72
2023-05-22T06:29:36.338Z,22.12
2023-05-22T06:32:38.296Z,22.34
2023-05-22T06:35:40.256Z,22.29
2023-05-22T06:38:41.996Z,21.98
2023-05-22T06:41:43.854Z,21.88
2023-05-22T06:44:45.756Z,21.81
2023-05-22T06:47:47.598Z,21.54
2023-05-22T06:50:49.438Z,22.03
2023-05-22T06:53:51.632Z,22.15
2023-05-22T06:56:53.595Z,22.75
2023-05-22T06:59:55.355Z,22.53
2023-05-22T07:02:57.167Z,23.03
2023-05-22T07:05:59.554Z,23.33
2023-05-22T07:09:01.549Z,22.82
2023-05-22T07:12:03.476Z,23.29
2023-05-22T07:15:05.664Z,23.34
2023-05-22T07:18:09.363Z,23.15
2023-05-22T07:21:11.598Z,22.87
2023-05-22T07:24:13.436Z,22.99
2023-05-22T07:27:15.360Z,23.46
2023-05-22T07:30:17.100Z,22.84
2023-05-22T07:33:18.828Z,22.71
2023-05-22T07:36:21.054Z,23.11
2023-05-22T07:39:22.856Z,23.75
2023-05-22T07:42:26.099Z,24.16
2023-05-22T07:45:27.926Z,24.11
2023-05-22T07:48:29.810Z,24.21
2023-05-22T07:51:32.169Z,23.70
2023-05-22T07:54:33.961Z,24.19
2023-05-22T07:57:36.207Z,24.16
2023-05-22T08:00:38.058Z,24.33
2023-05-22T08:03:40.282Z,24.77
2023-05-22T08:06:43.890Z,24.80
2023-05-22T08:09:46.805Z,24.90
2023-05-22T08:12:48.619Z,24.33
2023-05-22T08:15:50.743Z,25.28
2023-05-22T08:19:02.736Z,25.08
2023-05-22T08:22:04.645Z,25.08
2023-05-22T08:25:06.656Z,25.56
2023-05-22T08:28:08.551Z,26.09
2023-05-22T08:31:13.076Z,24.78
2023-05-22T08:34:15.166Z,25.64
2023-05-22T08:37:16.987Z,25.91
2023-05-22T08:40:20.408Z,26.10
2023-05-22T08:43:22.486Z,26.48
2023-05-22T08:46:28.236Z,26.71
2023-05-22T08:49:30.739Z,26.89
2023-05-22T08:52:51.233Z,25.24
2023-05-22T08:55:53.812Z,25.94
2023-05-22T08:58:55.716Z,26.18
2023-05-22T09:01:58.244Z,25.80
2023-05-22T09:05:05.311Z,26.35
2023-05-22T09:08:19.132Z,26.44
2023-05-22T09:11:22.716Z,26.17
2023-05-22T09:14:25.469Z,26.37
2023-05-22T09:17:27.497Z,26.86
2023-05-22T09:20:29.575Z,27.06
2023-05-22T09:23:32.099Z,26.04
2023-05-22T09:26:34.670Z,26.53
2023-05-22T09:29:50.943Z,26.62
2023-05-22T09:32:53.290Z,25.64
2023-05-22T09:35:55.321Z,26.98
2023-05-22T09:38:58.133Z,27.59
2023-05-22T09:42:01.527Z,27.51
2023-05-22T09:45:07.186Z,26.99
2023-05-22T09:48:10.181Z,26.65
2023-05-22T09:51:13.067Z,26.25
2023-05-22T09:54:16.198Z,26.99
2023-05-22T09:57:19.669Z,27.38
2023-05-22T10:00:24.409Z,27.98
2023-05-22T10:03:27.170Z,28.17
2023-05-22T10:06:31.572Z,28.65
2023-05-22T10:09:36.508Z,28.39
2023-05-22T10:13:07.968Z,29.06
2023-05-22T10:16:12.091Z,29.17
2023-05-22T10:19:14.570Z,27.01
2023-05-22T10:22:20.877Z,27.05
2023-05-22T10:25:23.269Z,28.39
2023-05-22T10:28:29.366Z,29.11
2023-05-22T10:32:13.402Z,28.95
2023-05-22T10:35:21.132Z,29.32
2023-05-22T10:38:28.298Z,29.83
2023-05-22T10:41:31.103Z,27.77
2023-05-22T10:44:33.469Z,27.73
2023-05-22T10:47:35.731Z,28.67
2023-05-22T10:50:38.499Z,28.20
2023-05-22T10:53:42.907Z,28.60
2023-05-22T10:56:45.574Z,29.21
2023-05-22T10:59:47.882Z,29.25
2023-05-22T11:02:49.986Z,29.34
2023-05-22T11:05:53.930Z,29.45
2023-05-22T11:08:56.501Z,29.05
2023-05-22T11:12:17.825Z,28.91
2023-05-22T11:15:30.683Z,28.88
2023-05-22T11:18:32.551Z,28.32
2023-05-22T11:21:47.688Z,28.75
2023-05-22T11:24:49.573Z,29.21
2023-05-22T11:27:51.410Z,28.70
2023-05-22T11:30:54.147Z,28.89
2023-05-22T11:33:56.146Z,28.19
2023-05-22T11:37:01.689Z,27.78
2023-05-22T11:40:06.085Z,28.01
2023-05-22T11:43:08.136Z,28.23
2023-05-22T11:46:11.215Z,28.22
2023-05-22T11:49:13.297Z,28.26
2023-05-22T11:52:19.060Z,28.19
2023-05-22T11:55:22.688Z,27.78
2023-05-22T11:58:28.627Z,28.15
2023-05-22T12:01:30.917Z,28.40
2023-05-22T12:04:33.267Z,28.18
2023-05-22T12:07:35.148Z,28.20
2023-05-22T12:10:37.202Z,28.44
2023-05-22T12:13:39.382Z,28.61
2023-05-22T12:16:41.357Z,28.74
2023-05-22T12:19:44.167Z,29.10
2023-05-22T12:22:47.122Z,28.91
2023-05-22T12:25:57.875Z,29.35
2023-05-22T12:28:59.802Z,29.45
2023-05-22T12:32:03.304Z,28.74
2023-05-22T12:35:05.676Z,29.04
2023-05-22T12:38:07.676Z,28.96
2023-05-22T12:41:09.430Z,29.20
2023-05-22T12:44:12.077Z,29.15
2023-05-22T12:47:13.911Z,28.49
2023-05-22T12:50:22.743Z,28.62
2023-05-22T12:57:36.555Z,29.02
2023-05-22T13:00:38.593Z,29.03
2023-05-22T13:03:40.583Z,29.62
2023-05-22T13:06:42.380Z,29.57
2023-05-22T13:09:44.236Z,29.43
2023-05-22T13:12:48.567Z,29.30
2023-05-22T13:15:50.533Z,29.75
2023-05-22T13:18:52.448Z,29.48
2023-05-22T13:21:54.333Z,28.65
2023-05-22T13:24:56.171Z,29.02
2023-05-22T13:27:59.285Z,28.99
2023-05-22T13:31:01.219Z,29.35
2023-05-22T13:34:03.326Z,29.28
2023-05-22T13:37:05.343Z,29.46
2023-05-22T13:40:12.250Z,29.54
2023-05-22T13:43:14.811Z,29.79
2023-05-22T13:46:18.147Z,29.72
2023-05-22T13:49:19.984Z,29.52
2023-05-22T13:52:22.152Z,29.60
2023-05-22T13:55:24.013Z,29.63
2023-05-22T13:58:25.928Z,29.08
2023-05-22T14:01:27.841Z,28.57
2023-05-22T14:04:29.810Z,28.41
2023-05-22T14:07:31.632Z,28.46
2023-05-22T14:10:34.560Z,28.11
2023-05-22T14:13:36.410Z,28.13
2023-05-22T14:16:39.025Z,28.65
2023-05-22T14:19:41.374Z,28.44
2023-05-22T14:22:56.377Z,28.36
2023-05-22T14:25:59.910Z,28.84
2023-05-22T14:29:01.795Z,29.09
2023-05-22T14:32:04.733Z,29.19
2023-05-22T14:35:06.755Z,29.40
2023-05-22T14:38:08.597Z,29.58
2023-05-22T14:41:10.709Z,29.57
2023-05-22T14:44:12.563Z,28.92
2023-05-22T14:47:14.386Z,29.21
2023-05-22T14:50:19.768Z,28.49
2023-05-22T14:53:23.274Z,28.80
2023-05-22T14:56:26.505Z,28.69
2023-05-22T14:59:28.410Z,28.66
2023-05-22T15:02:30.300Z,28.64
2023-05-22T15:05:32.151Z,28.46
2023-05-22T15:08:34.245Z,28.46
2023-05-22T15:11:36.649Z,28.51
2023-05-22T15:14:38.577Z,28.22
2023-05-22T15:17:42.636Z,28.08
2023-05-22T15:20:45.096Z,27.90
2023-05-22T15:23:47.021Z,27.69
2023-05-22T15:26:48.858Z,27.48
2023-05-22T15:29:50.759Z,27.41
2023-05-22T15:32:52.604Z,27.40
2023-05-22T15:35:54.538Z,27.16
2023-05-22T15:38:56.380Z,26.94
2023-05-22T15:42:05.815Z,27.05
2023-05-22T15:45:13.393Z,27.23
2023-05-22T15:48:18.245Z,27.29
2023-05-22T15:51:20.129Z,27.04
2023-05-22T15:54:21.951Z,27.04
2023-05-22T15:57:23.856Z,26.90
2023-05-22T16:00:26.926Z,27.02
2023-05-22T16:03:28.920Z,26.92
2023-05-22T16:06:30.752Z,26.87
2023-05-22T16:09:32.969Z,26.84
2023-05-22T16:12:34.935Z,26.77
2023-05-22T16:15:39.687Z,26.49
2023-05-22T16:18:41.776Z,25.78
2023-05-22T16:21:44.242Z,25.83
2023-05-22T16:24:46.336Z,25.36
2023-05-22T16:27:48.163Z,25.15
2023-05-22T16:30:49.910Z,25.03
2023-05-22T16:33:53.033Z,24.97
2023-05-22T16:36:54.978Z,24.82
2023-05-22T16:39:56.777Z,24.90
2023-05-22T16:42:58.654Z,24.41
2023-05-22T16:46:00.583Z,23.44
2023-05-22T16:49:02.487Z,22.59
2023-05-22T16:52:04.418Z,21.96
2023-05-22T16:55:07.029Z,21.76
2023-05-22T16:58:13.443Z,21.84
2023-05-22T17:01:15.540Z,21.77
2023-05-22T17:04:20.168Z,21.96
2023-05-22T17:07:24.882Z,21.92
2023-05-22T17:10:30.908Z,22.11
2023-05-22T17:13:33.244Z,22.16
2023-05-22T17:16:35.175Z,22.00
2023-05-22T17:19:37.303Z,22.00
2023-05-22T17:22:39.113Z,21.98
2023-05-22T17:25:41.826Z,21.97
2023-05-22T17:28:44.615Z,22.02
2023-05-22T17:31:46.585Z,21.97
2023-05-22T17:34:49.267Z,22.05
2023-05-22T17:37:51.221Z,21.86
2023-05-22T17:40:53.678Z,21.82
2023-05-22T17:43:57.153Z,21.87
2023-05-22T17:46:59.219Z,21.84
2023-05-22T17:50:01.078Z,21.80
2023-05-22T17:53:03.272Z,21.70
2023-05-22T17:56:05.764Z,21.50
2023-05-22T17:59:08.122Z,21.16
2023-05-22T18:02:09.985Z,21.15
2023-05-22T18:05:12.716Z,20.37
2023-05-22T18:08:15.955Z,20.52
2023-05-22T18:11:18.124Z,20.67
2023-05-22T18:14:20.334Z,20.74
2023-05-22T18:17:22.887Z,20.82
2023-05-22T18:20:24.865Z,20.80
2023-05-22T18:23:26.931Z,20.89
2023-05-22T18:26:29.035Z,20.75
2023-05-22T18:29:30.771Z,20.67
2023-05-22T18:32:32.754Z,20.60
2023-05-22T18:35:34.910Z,20.50
2023-05-22T18:38:36.951Z,20.50
2023-05-22T18:41:38.877Z,20.47
2023-05-22T18:44:41.107Z,20.50
2023-05-22T18:47:42.932Z,20.54
2023-05-22T18:50:44.917Z,20.52
2023-05-22T18:53:47.066Z,20.33
2023-05-22T18:56:48.989Z,20.16
2023-05-22T18:59:51.039Z,20.08
2023-05-22T19:02:52.871Z,19.99
2023-05-22T19:05:55.352Z,19.81
2023-05-22T19:08:57.209Z,19.60
2023-05-22T19:11:59.104Z,19.32
2023-05-22T19:15:00.940Z,19.30
2023-05-22T19:18:02.847Z,18.94
2023-05-22T19:21:04.724Z,19.04
2023-05-22T19:24:06.922Z,18.96
2023-05-22T19:27:09.010Z,18.98
2023-05-22T19:30:11.430Z,19.01
2023-05-22T19:33:14.568Z,19.07
2023-05-22T19:36:16.620Z,19.12
2023-05-22T19:39:18.378Z,19.14
2023-05-22T19:42:20.203Z,19.13
2023-05-22T19:45:22.050Z,19.09
2023-05-22T19:48:23.908Z,18.97
2023-05-22T19:51:25.819Z,18.91
2023-05-22T19:54:27.608Z,18.81
2023-05-22T19:57:31.130Z,18.84
2023-05-22T20:00:33.488Z,18.84
2023-05-22T20:03:35.681Z,18.83
2023-05-22T20:06:37.735Z,18.72
2023-05-22T20:09:39.503Z,18.62
2023-05-22T20:12:41.311Z,18.57
2023-05-22T20:15:43.154Z,18.54
2023-05-22T20:18:44.913Z,18.56
2023-05-22T20:21:49.050Z,18.52
2023-05-22T20:24:52.501Z,18.49
2023-05-22T20:27:54.264Z,18.43
2023-05-22T20:30:56.075Z,18.40
2023-05-22T20:33:59.127Z,18.34
2023-05-22T20:37:02.441Z,18.30
2023-05-22T20:40:05.490Z,18.25
2023-05-22T20:43:07.632Z,18.19
2023-05-22T20:46:10.201Z,18.15
2023-05-22T20:49:12.456Z,18.12
2023-05-22T20:52:14.317Z,18.09
2023-05-22T20:55:16.165Z,18.05
2023-05-22T20:58:19.849Z,17.95
2023-05-22T21:01:22.678Z,17.83
2023-05-22T21:04:25.936Z,17.77
2023-05-22T21:07:27.767Z,17.21
2023-05-22T21:10:29.616Z,16.69
2023-05-22T21:13:31.349Z,16.77
2023-05-22T21:16:33.216Z,16.66
2023-05-22T21:19:35.161Z,16.80
2023-05-22T21:22:37.048Z,16.67
2023-05-22T21:25:38.949Z,16.66
2023-05-22T21:28:41.925Z,16.65
2023-05-22T21:31:43.878Z,16.55
2023-05-22T21:34:46.715Z,16.57
2023-05-22T21:37:48.445Z,16.71
2023-05-22T21:40:50.372Z,16.77
2023-05-22T21:43:52.134Z,16.84
2023-05-22T21:46:54.059Z,16.84
2023-05-22T21:49:55.833Z,16.90
2023-05-22T21:52:57.610Z,16.90
2023-05-22T21:55:59.496Z,16.86
2023-05-22T21:59:01.238Z,16.56
2023-05-22T22:02:03.100Z,16.65
2023-05-22T22:05:05.284Z,16.64
2023-05-22T22:08:07.160Z,16.64
2023-05-22T22:11:08.973Z,16.72
2023-05-22T22:14:10.769Z,16.74
2023-05-22T22:17:12.509Z,16.76
2023-05-22T22:20:14.331Z,16.73
2023-05-22T22:23:16.234Z,16.73
2023-05-22T22:26:18.083Z,16.67
2023-05-22T22:29:19.891Z,16.63
2023-05-22T22:32:21.684Z,16.57
2023-05-22T22:35:23.527Z,16.50
2023-05-22T22:38:25.383Z,16.30
2023-05-22T22:41:27.585Z,16.18
2023-05-22T22:44:29.854Z,16.23
2023-05-22T22:47:31.699Z,16.13
2023-05-22T22:50:33.501Z,16.06
2023-05-22T22:53:36.352Z,16.01
2023-05-22T22:56:38.278Z,16.07
2023-05-22T22:59:40.285Z,16.06
2023-05-22T23:02:42.217Z,16.06
2023-05-22T23:05:44.334Z,16.01
2023-05-22T23:08:46.315Z,16.00
2023-05-22T23:11:48.178Z,15.93
2023-05-22T23:14:50.551Z,15.87
2023-05-22T23:17:52.431Z,15.93
2023-05-22T23:20:54.226Z,15.92
2023-05-22T23:23:56.181Z,15.81
2023-05-22T23:26:57.994Z,15.69
2023-05-22T23:29:59.841Z,15.63
2023-05-22T23:33:02.645Z,15.54
2023-05-22T23:36:04.519Z,15.63
2023-05-22T23:39:06.424Z,15.58
2023-05-22T23:42:09.879Z,15.49
2023-05-22T23:45:11.916Z,15.46
2023-05-22T23:48:13.868Z,15.42
2023-05-22T23:51:16.932Z,15.51
2023-05-22T23:54:18.802Z,15.55
2023-05-22T23:57:20.722Z,15.58
